sensor_id;sensor_type;location;lat;lon;timestamp;pressure;altitude;pressure_sealevel;temperature;humidity
16690;BME280;8458;52.220;9.884;2023-07-31T00:01:28;100209.03;;;18.47;93.87
16690;BME280;8458;52.220;9.884;2023-07-31T00:03:54;100194.81;;;18.52;94.28
16690;BME280;8458;52.220;9.884;2023-07-31T00:06:22;100199.59;;;18.52;94.06
16690;BME280;8458;52.220;9.884;2023-07-31T00:08:49;100199.28;;;18.53;94.11
16690;BME280;8458;52.220;9.884;2023-07-31T00:11:15;100192.66;;;18.49;93.64
16690;BME280;8458;52.220;9.884;2023-07-31T00:13:41;100189.84;;;18.49;92.03
16690;BME280;8458;52.220;9.884;2023-07-31T00:16:08;100191.00;;;18.48;92.47
16690;BME280;8458;52.220;9.884;2023-07-31T00:18:34;100193.00;;;18.56;92.54
16690;BME280;8458;52.220;9.884;2023-07-31T00:21:01;100189.34;;;18.56;92.33
16690;BME280;8458;52.220;9.884;2023-07-31T00:23:28;100180.44;;;18.54;92.74
16690;BME280;8458;52.220;9.884;2023-07-31T00:25:55;100187.88;;;18.58;92.83
16690;BME280;8458;52.220;9.884;2023-07-31T00:28:21;100182.41;;;18.62;92.75
16690;BME280;8458;52.220;9.884;2023-07-31T00:30:48;100182.59;;;18.57;92.86
16690;BME280;8458;52.220;9.884;2023-07-31T00:33:14;100183.06;;;18.59;92.79
16690;BME280;8458;52.220;9.884;2023-07-31T00:35:41;100172.03;;;18.54;92.43
16690;BME280;8458;52.220;9.884;2023-07-31T00:38:07;100178.78;;;18.53;92.47
16690;BME280;8458;52.220;9.884;2023-07-31T00:40:35;100173.16;;;18.53;92.20
16690;BME280;8458;52.220;9.884;2023-07-31T00:43:03;100159.97;;;18.44;92.34
16690;BME280;8458;52.220;9.884;2023-07-31T00:45:30;100158.34;;;18.43;92.34
16690;BME280;8458;52.220;9.884;2023-07-31T00:47:57;100161.28;;;18.38;92.44
16690;BME280;8458;52.220;9.884;2023-07-31T00:50:24;100162.63;;;18.32;92.94
16690;BME280;8458;52.220;9.884;2023-07-31T00:52:51;100157.66;;;18.29;93.47
16690;BME280;8458;52.220;9.884;2023-07-31T00:55:18;100159.97;;;18.27;94.00
16690;BME280;8458;52.220;9.884;2023-07-31T00:57:46;100158.31;;;18.26;94.65
16690;BME280;8458;52.220;9.884;2023-07-31T01:00:13;100156.69;;;18.25;94.26
16690;BME280;8458;52.220;9.884;2023-07-31T01:02:39;100151.38;;;18.15;95.07
16690;BME280;8458;52.220;9.884;2023-07-31T01:05:06;100151.22;;;18.11;95.02
16690;BME280;8458;52.220;9.884;2023-07-31T01:07:38;100151.38;;;18.15;95.80
16690;BME280;8458;52.220;9.884;2023-07-31T01:10:11;100147.44;;;18.16;96.36
16690;BME280;8458;52.220;9.884;2023-07-31T01:12:43;100147.94;;;18.18;96.52
16690;BME280;8458;52.220;9.884;2023-07-31T01:15:13;100143.47;;;18.17;96.71
16690;BME280;8458;52.220;9.884;2023-07-31T01:17:41;100142.81;;;18.20;97.35
16690;BME280;8458;52.220;9.884;2023-07-31T01:20:11;100127.94;;;18.10;97.16
16690;BME280;8458;52.220;9.884;2023-07-31T01:22:54;100132.91;;;18.14;96.26
16690;BME280;8458;52.220;9.884;2023-07-31T01:25:44;100118.38;;;18.12;97.31
16690;BME280;8458;52.220;9.884;2023-07-31T01:28:14;100109.13;;;17.94;98.69
16690;BME280;8458;52.220;9.884;2023-07-31T01:30:46;100110.09;;;17.89;99.07
16690;BME280;8458;52.220;9.884;2023-07-31T01:33:14;100107.59;;;17.79;99.79
16690;BME280;8458;52.220;9.884;2023-07-31T01:35:43;100100.34;;;17.78;99.82
16690;BME280;8458;52.220;9.884;2023-07-31T01:38:10;100105.13;;;17.77;100.00
16690;BME280;8458;52.220;9.884;2023-07-31T01:40:37;100096.88;;;17.81;100.00
16690;BME280;8458;52.220;9.884;2023-07-31T01:43:04;100093.06;;;17.68;100.00
16690;BME280;8458;52.220;9.884;2023-07-31T01:45:31;100089.75;;;17.66;100.00
16690;BME280;8458;52.220;9.884;2023-07-31T01:47:57;100088.59;;;17.58;100.00
16690;BME280;8458;52.220;9.884;2023-07-31T01:50:24;100094.03;;;17.54;100.00
16690;BME280;8458;52.220;9.884;2023-07-31T01:52:50;100085.13;;;17.52;100.00
16690;BME280;8458;52.220;9.884;2023-07-31T01:55:17;100086.25;;;17.43;100.00
16690;BME280;8458;52.220;9.884;2023-07-31T01:57:43;100088.06;;;17.47;100.00
16690;BME280;8458;52.220;9.884;2023-07-31T02:00:12;100075.69;;;17.39;100.00
16690;BME280;8458;52.220;9.884;2023-07-31T02:02:38;100074.69;;;17.35;100.00
16690;BME280;8458;52.220;9.884;2023-07-31T02:05:05;100088.56;;;17.41;100.00
16690;BME280;8458;52.220;9.884;2023-07-31T02:07:32;100077.50;;;17.44;100.00
16690;BME280;8458;52.220;9.884;2023-07-31T02:09:58;100071.41;;;17.42;100.00
16690;BME280;8458;52.220;9.884;2023-07-31T02:12:24;100070.44;;;17.47;100.00
16690;BME280;8458;52.220;9.884;2023-07-31T02:14:51;100073.56;;;17.45;100.00
16690;BME280;8458;52.220;9.884;2023-07-31T02:17:19;100069.78;;;17.50;100.00
16690;BME280;8458;52.220;9.884;2023-07-31T02:19:46;100068.44;;;17.38;100.00
16690;BME280;8458;52.220;9.884;2023-07-31T02:22:12;100056.91;;;17.40;100.00
16690;BME280;8458;52.220;9.884;2023-07-31T02:24:39;100047.84;;;17.43;100.00
16690;BME280;8458;52.220;9.884;2023-07-31T02:27:06;100050.97;;;17.50;100.00
16690;BME280;8458;52.220;9.884;2023-07-31T02:29:32;100048.38;;;17.54;100.00
16690;BME280;8458;52.220;9.884;2023-07-31T02:31:59;100050.66;;;17.52;100.00
16690;BME280;8458;52.220;9.884;2023-07-31T02:34:26;100050.66;;;17.52;100.00
16690;BME280;8458;52.220;9.884;2023-07-31T02:36:53;100049.31;;;17.41;100.00
16690;BME280;8458;52.220;9.884;2023-07-31T02:39:19;100048.00;;;17.47;100.00
16690;BME280;8458;52.220;9.884;2023-07-31T02:41:46;100042.56;;;17.50;100.00
16690;BME280;8458;52.220;9.884;2023-07-31T02:44:13;100046.72;;;17.53;100.00
16690;BME280;8458;52.220;9.884;2023-07-31T02:46:39;100041.09;;;17.53;100.00
16690;BME280;8458;52.220;9.884;2023-07-31T02:49:06;100045.56;;;17.54;100.00
16690;BME280;8458;52.220;9.884;2023-07-31T02:51:34;100047.38;;;17.50;100.00
16690;BME280;8458;52.220;9.884;2023-07-31T02:54:00;100044.53;;;17.41;100.00
16690;BME280;8458;52.220;9.884;2023-07-31T02:56:26;100043.88;;;17.44;100.00
16690;BME280;8458;52.220;9.884;2023-07-31T02:58:53;100045.19;;;17.38;100.00
16690;BME280;8458;52.220;9.884;2023-07-31T03:01:19;100039.59;;;17.38;100.00
16690;BME280;8458;52.220;9.884;2023-07-31T03:03:46;100040.44;;;17.38;100.00
16690;BME280;8458;52.220;9.884;2023-07-31T03:06:12;100044.38;;;17.37;100.00
16690;BME280;8458;52.220;9.884;2023-07-31T03:08:40;100041.56;;;17.37;100.00
16690;BME280;8458;52.220;9.884;2023-07-31T03:11:06;100045.38;;;17.42;100.00
16690;BME280;8458;52.220;9.884;2023-07-31T03:13:33;100049.47;;;17.44;100.00
16690;BME280;8458;52.220;9.884;2023-07-31T03:15:59;100044.72;;;17.45;100.00
16690;BME280;8458;52.220;9.884;2023-07-31T03:18:26;100031.03;;;17.43;100.00
16690;BME280;8458;52.220;9.884;2023-07-31T03:20:52;100044.72;;;17.45;100.00
16690;BME280;8458;52.220;9.884;2023-07-31T03:23:19;100050.13;;;17.41;100.00
16690;BME280;8458;52.220;9.884;2023-07-31T03:25:56;100047.66;;;17.39;100.00
16690;BME280;8458;52.220;9.884;2023-07-31T03:28:23;100052.94;;;17.32;100.00
16690;BME280;8458;52.220;9.884;2023-07-31T03:30:50;100054.25;;;17.26;100.00
16690;BME280;8458;52.220;9.884;2023-07-31T03:33:17;100045.84;;;17.26;100.00
16690;BME280;8458;52.220;9.884;2023-07-31T03:35:43;100049.63;;;17.30;100.00
16690;BME280;8458;52.220;9.884;2023-07-31T03:38:10;100049.63;;;17.30;100.00
16690;BME280;8458;52.220;9.884;2023-07-31T03:40:36;100056.22;;;17.34;100.00
16690;BME280;8458;52.220;9.884;2023-07-31T03:43:04;100058.03;;;17.30;100.00
16690;BME280;8458;52.220;9.884;2023-07-31T03:45:31;100060.50;;;17.23;100.00
16690;BME280;8458;52.220;9.884;2023-07-31T03:47:58;100063.78;;;17.25;100.00
16690;BME280;8458;52.220;9.884;2023-07-31T03:50:24;100063.41;;;17.18;100.00
16690;BME280;8458;52.220;9.884;2023-07-31T03:52:51;100063.91;;;17.11;100.00
16690;BME280;8458;52.220;9.884;2023-07-31T03:55:18;100063.41;;;17.18;100.00
16690;BME280;8458;52.220;9.884;2023-07-31T03:57:44;100063.63;;;17.22;100.00
16690;BME280;8458;52.220;9.884;2023-07-31T04:00:13;100059.47;;;17.19;100.00
16690;BME280;8458;52.220;9.884;2023-07-31T04:02:39;100056.53;;;17.24;100.00
16690;BME280;8458;52.220;9.884;2023-07-31T04:05:06;100061.34;;;17.32;100.00
16690;BME280;8458;52.220;9.884;2023-07-31T04:07:33;100052.09;;;17.32;100.00
16690;BME280;8458;52.220;9.884;2023-07-31T04:09:59;100048.97;;;17.33;100.00
16690;BME280;8458;52.220;9.884;2023-07-31T04:12:26;100046.16;;;17.33;100.00
16690;BME280;8458;52.220;9.884;2023-07-31T04:14:53;100044.00;;;17.30;100.00
16690;BME280;8458;52.220;9.884;2023-07-31T04:17:20;100043.34;;;17.25;100.00
16690;BME280;8458;52.220;9.884;2023-07-31T04:19:47;100048.13;;;17.24;100.00
16690;BME280;8458;52.220;9.884;2023-07-31T04:22:13;100041.38;;;17.25;100.00
16690;BME280;8458;52.220;9.884;2023-07-31T04:24:40;100037.06;;;17.19;100.00
16690;BME280;8458;52.220;9.884;2023-07-31T04:27:06;100036.91;;;17.15;100.00
16690;BME280;8458;52.220;9.884;2023-07-31T04:29:33;100040.03;;;17.14;100.00
16690;BME280;8458;52.220;9.884;2023-07-31T04:32:00;100031.31;;;17.15;100.00
16690;BME280;8458;52.220;9.884;2023-07-31T04:34:28;100034.09;;;17.15;100.00
16690;BME280;8458;52.220;9.884;2023-07-31T04:36:54;100028.34;;;17.20;100.00
16690;BME280;8458;52.220;9.884;2023-07-31T04:39:20;100032.13;;;17.16;100.00
16690;BME280;8458;52.220;9.884;2023-07-31T04:41:47;100021.41;;;17.18;100.00
16690;BME280;8458;52.220;9.884;2023-07-31T04:44:13;100035.72;;;17.08;100.00
16690;BME280;8458;52.220;9.884;2023-07-31T04:46:40;100034.44;;;17.14;100.00
16690;BME280;8458;52.220;9.884;2023-07-31T04:49:06;100023.38;;;17.09;100.00
16690;BME280;8458;52.220;9.884;2023-07-31T04:51:34;100025.53;;;17.12;100.00
16690;BME280;8458;52.220;9.884;2023-07-31T04:54:00;100024.19;;;17.09;100.00
16690;BME280;8458;52.220;9.884;2023-07-31T04:56:27;100024.69;;;17.11;100.00
16690;BME280;8458;52.220;9.884;2023-07-31T04:58:54;100025.19;;;17.13;100.00
16690;BME280;8458;52.220;9.884;2023-07-31T05:01:20;100012.03;;;17.14;100.00
16690;BME280;8458;52.220;9.884;2023-07-31T05:03:47;100014.34;;;17.12;100.00
16690;BME280;8458;52.220;9.884;2023-07-31T05:06:13;100015.00;;;17.09;100.00
16690;BME280;8458;52.220;9.884;2023-07-31T05:08:41;100015.63;;;17.06;100.00
16690;BME280;8458;52.220;9.884;2023-07-31T05:11:08;100021.16;;;16.88;100.00
16690;BME280;8458;52.220;9.884;2023-07-31T05:13:34;100019.69;;;16.91;100.00
16690;BME280;8458;52.220;9.884;2023-07-31T05:16:01;100012.25;;;16.86;100.00
16690;BME280;8458;52.220;9.884;2023-07-31T05:18:27;100011.13;;;16.87;100.00
16690;BME280;8458;52.220;9.884;2023-07-31T05:20:54;100012.56;;;16.84;100.00
16690;BME280;8458;52.220;9.884;2023-07-31T05:23:20;100008.94;;;16.84;100.00
16690;BME280;8458;52.220;9.884;2023-07-31T05:25:48;100002.72;;;16.87;100.00
16690;BME280;8458;52.220;9.884;2023-07-31T05:28:14;99999.38;;;16.85;100.00
16690;BME280;8458;52.220;9.884;2023-07-31T05:30:41;100007.28;;;16.83;100.00
16690;BME280;8458;52.220;9.884;2023-07-31T05:33:07;100000.03;;;16.82;100.00
16690;BME280;8458;52.220;9.884;2023-07-31T05:35:34;99999.69;;;16.75;100.00
16690;BME280;8458;52.220;9.884;2023-07-31T05:38:00;100000.66;;;16.79;100.00
16690;BME280;8458;52.220;9.884;2023-07-31T05:40:27;100002.31;;;16.80;100.00
16690;BME280;8458;52.220;9.884;2023-07-31T05:42:54;100007.91;;;16.80;100.00
16690;BME280;8458;52.220;9.884;2023-07-31T05:45:21;100000.66;;;16.70;100.00
16690;BME280;8458;52.220;9.884;2023-07-31T05:47:47;99997.38;;;16.77;100.00
16690;BME280;8458;52.220;9.884;2023-07-31T05:50:14;99997.53;;;16.80;100.00
16690;BME280;8458;52.220;9.884;2023-07-31T05:52:40;99994.75;;;16.80;100.00
16690;BME280;8458;52.220;9.884;2023-07-31T05:55:08;99993.78;;;16.85;100.00
16690;BME280;8458;52.220;9.884;2023-07-31T05:57:34;99993.13;;;16.79;100.00
16690;BME280;8458;52.220;9.884;2023-07-31T06:00:03;99992.78;;;16.81;100.00
16690;BME280;8458;52.220;9.884;2023-07-31T06:02:29;99999.38;;;16.85;100.00
16690;BME280;8458;52.220;9.884;2023-07-31T06:04:58;99989.88;;;16.86;100.00
16690;BME280;8458;52.220;9.884;2023-07-31T06:07:25;99990.47;;;16.83;100.00
16690;BME280;8458;52.220;9.884;2023-07-31T06:09:52;99990.31;;;16.79;100.00
16690;BME280;8458;52.220;9.884;2023-07-31T06:12:19;99998.38;;;16.81;100.00
16690;BME280;8458;52.220;9.884;2023-07-31T06:14:46;99995.38;;;16.77;100.00
16690;BME280;8458;52.220;9.884;2023-07-31T06:17:14;99990.63;;;16.78;100.00
16690;BME280;8458;52.220;9.884;2023-07-31T06:19:40;99992.41;;;16.74;100.00
16690;BME280;8458;52.220;9.884;2023-07-31T06:22:07;99990.31;;;16.79;100.00
16690;BME280;8458;52.220;9.884;2023-07-31T06:24:33;99997.38;;;16.77;100.00
16690;BME280;8458;52.220;9.884;2023-07-31T06:27:00;99987.84;;;16.78;100.00
16690;BME280;8458;52.220;9.884;2023-07-31T06:29:29;99996.34;;;16.73;100.00
16690;BME280;8458;52.220;9.884;2023-07-31T06:31:55;100001.31;;;16.76;100.00
16690;BME280;8458;52.220;9.884;2023-07-31T06:34:23;99997.38;;;16.77;100.00
16690;BME280;8458;52.220;9.884;2023-07-31T06:36:49;99996.41;;;16.81;100.00
16690;BME280;8458;52.220;9.884;2023-07-31T06:39:16;100010.22;;;16.78;100.00
16690;BME280;8458;52.220;9.884;2023-07-31T06:41:43;99995.53;;;16.72;100.00
16690;BME280;8458;52.220;9.884;2023-07-31T06:44:10;100001.97;;;16.73;100.00
16690;BME280;8458;52.220;9.884;2023-07-31T06:46:36;100001.28;;;16.67;100.00
16690;BME280;8458;52.220;9.884;2023-07-31T06:49:03;99997.00;;;16.70;100.00
16690;BME280;8458;52.220;9.884;2023-07-31T06:51:31;99995.81;;;16.62;100.00
16690;BME280;8458;52.220;9.884;2023-07-31T06:53:57;99993.88;;;16.62;100.00
16690;BME280;8458;52.220;9.884;2023-07-31T06:56:24;99993.53;;;16.64;100.00
16690;BME280;8458;52.220;9.884;2023-07-31T06:58:51;99998.28;;;16.63;100.00
16690;BME280;8458;52.220;9.884;2023-07-31T07:01:17;99988.28;;;16.71;100.00
16690;BME280;8458;52.220;9.884;2023-07-31T07:03:44;99990.75;;;16.73;100.00
16690;BME280;8458;52.220;9.884;2023-07-31T07:06:10;99995.38;;;16.69;100.00
16690;BME280;8458;52.220;9.884;2023-07-31T07:08:38;99998.66;;;16.71;100.00
16690;BME280;8458;52.220;9.884;2023-07-31T07:11:05;99996.19;;;16.69;100.00
16690;BME280;8458;52.220;9.884;2023-07-31T07:13:31;99990.91;;;16.67;100.00
16690;BME280;8458;52.220;9.884;2023-07-31T07:15:57;99987.78;;;16.69;100.00
16690;BME280;8458;52.220;9.884;2023-07-31T07:18:24;99981.72;;;16.76;100.00
16690;BME280;8458;52.220;9.884;2023-07-31T07:20:51;99984.03;;;16.74;100.00
16690;BME280;8458;52.220;9.884;2023-07-31T07:23:19;99978.91;;;16.76;100.00
16690;BME280;8458;52.220;9.884;2023-07-31T07:25:47;99984.38;;;16.81;100.00
16690;BME280;8458;52.220;9.884;2023-07-31T07:28:14;99983.06;;;16.78;100.00
16690;BME280;8458;52.220;9.884;2023-07-31T07:30:40;99988.16;;;16.85;100.00
16690;BME280;8458;52.220;9.884;2023-07-31T07:33:07;99973.06;;;16.86;100.00
16690;BME280;8458;52.220;9.884;2023-07-31T07:35:33;99967.91;;;16.79;100.00
16690;BME280;8458;52.220;9.884;2023-07-31T07:38:01;99976.13;;;16.76;100.00
16690;BME280;8458;52.220;9.884;2023-07-31T07:40:27;99983.69;;;16.75;100.00
16690;BME280;8458;52.220;9.884;2023-07-31T07:42:55;99987.31;;;16.76;100.00
16690;BME280;8458;52.220;9.884;2023-07-31T07:45:21;99982.72;;;16.80;100.00
16690;BME280;8458;52.220;9.884;2023-07-31T07:47:48;99991.63;;;16.82;100.00
16690;BME280;8458;52.220;9.884;2023-07-31T07:50:14;99994.41;;;16.82;100.00
16690;BME280;8458;52.220;9.884;2023-07-31T07:52:41;99993.59;;;16.81;100.00
16690;BME280;8458;52.220;9.884;2023-07-31T07:55:08;100001.69;;;16.83;100.00
16690;BME280;8458;52.220;9.884;2023-07-31T07:57:34;99998.88;;;16.83;100.00
16690;BME280;8458;52.220;9.884;2023-07-31T08:00:03;100006.50;;;16.91;100.00
16690;BME280;8458;52.220;9.884;2023-07-31T08:02:30;99998.44;;;16.90;100.00
16690;BME280;8458;52.220;9.884;2023-07-31T08:04:56;99984.63;;;16.93;100.00
16690;BME280;8458;52.220;9.884;2023-07-31T08:07:23;99996.00;;;16.97;100.00
16690;BME280;8458;52.220;9.884;2023-07-31T08:09:49;99995.81;;;16.93;100.00
16690;BME280;8458;52.220;9.884;2023-07-31T08:12:16;99993.53;;;16.95;100.00
16690;BME280;8458;52.220;9.884;2023-07-31T08:14:42;99997.97;;;16.96;100.00
16690;BME280;8458;52.220;9.884;2023-07-31T08:17:10;99996.69;;;17.02;100.00
16690;BME280;8458;52.220;9.884;2023-07-31T08:19:37;99995.50;;;17.03;100.00
16690;BME280;8458;52.220;9.884;2023-07-31T08:22:03;99994.03;;;17.06;100.00
16690;BME280;8458;52.220;9.884;2023-07-31T08:24:30;99991.41;;;17.10;100.00
16690;BME280;8458;52.220;9.884;2023-07-31T08:26:56;99984.66;;;17.11;100.00
16690;BME280;8458;52.220;9.884;2023-07-31T08:29:23;99985.19;;;17.22;100.00
16690;BME280;8458;52.220;9.884;2023-07-31T08:31:49;99985.50;;;17.20;100.00
16690;BME280;8458;52.220;9.884;2023-07-31T08:34:17;99987.50;;;17.28;100.00
16690;BME280;8458;52.220;9.884;2023-07-31T08:36:44;99982.38;;;17.30;100.00
16690;BME280;8458;52.220;9.884;2023-07-31T08:39:10;99981.06;;;17.36;100.00
16690;BME280;8458;52.220;9.884;2023-07-31T08:41:37;99982.06;;;17.41;100.00
16690;BME280;8458;52.220;9.884;2023-07-31T08:44:04;99983.88;;;17.45;100.00
16690;BME280;8458;52.220;9.884;2023-07-31T08:46:31;99971.88;;;17.45;100.00
16690;BME280;8458;52.220;9.884;2023-07-31T08:48:58;99979.28;;;17.41;100.00
16690;BME280;8458;52.220;9.884;2023-07-31T08:51:26;99968.56;;;17.43;100.00
16690;BME280;8458;52.220;9.884;2023-07-31T08:53:53;99971.53;;;17.37;100.00
16690;BME280;8458;52.220;9.884;2023-07-31T08:56:20;99973.66;;;17.32;100.00
16690;BME280;8458;52.220;9.884;2023-07-31T08:58:47;99964.75;;;17.30;100.00
16690;BME280;8458;52.220;9.884;2023-07-31T09:01:15;99955.69;;;17.24;100.00
16690;BME280;8458;52.220;9.884;2023-07-31T09:03:43;99956.69;;;17.28;100.00
16690;BME280;8458;52.220;9.884;2023-07-31T09:06:12;99963.75;;;17.26;100.00
16690;BME280;8458;52.220;9.884;2023-07-31T09:08:41;99951.72;;;17.25;100.00
16690;BME280;8458;52.220;9.884;2023-07-31T09:11:08;99954.19;;;17.27;100.00
16690;BME280;8458;52.220;9.884;2023-07-31T09:13:34;99957.50;;;17.29;100.00
16690;BME280;8458;52.220;9.884;2023-07-31T09:16:01;99948.44;;;17.23;100.00
16690;BME280;8458;52.220;9.884;2023-07-31T09:18:28;99950.91;;;17.33;100.00
16690;BME280;8458;52.220;9.884;2023-07-31T09:21:01;99943.00;;;17.35;100.00
16690;BME280;8458;52.220;9.884;2023-07-31T09:23:41;99944.50;;;17.42;100.00
16690;BME280;8458;52.220;9.884;2023-07-31T09:26:08;99952.41;;;17.39;100.00
16690;BME280;8458;52.220;9.884;2023-07-31T09:28:34;99941.19;;;17.39;100.00
16690;BME280;8458;52.220;9.884;2023-07-31T09:31:01;99945.81;;;17.35;100.00
16690;BME280;8458;52.220;9.884;2023-07-31T09:33:27;99937.25;;;17.41;100.00
16690;BME280;8458;52.220;9.884;2023-07-31T09:35:54;99932.63;;;17.45;100.00
16690;BME280;8458;52.220;9.884;2023-07-31T09:38:20;99926.38;;;17.48;100.00
16690;BME280;8458;52.220;9.884;2023-07-31T09:40:49;99933.78;;;17.52;100.00
16690;BME280;8458;52.220;9.884;2023-07-31T09:43:18;99930.00;;;17.57;100.00
16690;BME280;8458;52.220;9.884;2023-07-31T09:45:45;99925.38;;;17.61;100.00
16690;BME280;8458;52.220;9.884;2023-07-31T09:48:13;99918.78;;;17.57;100.00
16690;BME280;8458;52.220;9.884;2023-07-31T09:50:42;99925.88;;;17.63;100.00
16690;BME280;8458;52.220;9.884;2023-07-31T09:53:09;99930.81;;;17.66;100.00
16690;BME280;8458;52.220;9.884;2023-07-31T09:55:37;99914.50;;;17.68;100.00
16690;BME280;8458;52.220;9.884;2023-07-31T09:58:06;99911.50;;;17.73;100.00
16690;BME280;8458;52.220;9.884;2023-07-31T10:00:33;99906.88;;;17.78;100.00
16690;BME280;8458;52.220;9.884;2023-07-31T10:03:02;99898.81;;;17.76;100.00
16690;BME280;8458;52.220;9.884;2023-07-31T10:05:34;99913.16;;;17.74;100.00
16690;BME280;8458;52.220;9.884;2023-07-31T10:08:01;99905.91;;;17.73;100.00
16690;BME280;8458;52.220;9.884;2023-07-31T10:10:28;99907.22;;;17.85;100.00
16690;BME280;8458;52.220;9.884;2023-07-31T10:12:56;99909.69;;;17.86;100.00
16690;BME280;8458;52.220;9.884;2023-07-31T10:15:25;99899.97;;;17.92;100.00
16690;BME280;8458;52.220;9.884;2023-07-31T10:17:53;99899.66;;;17.94;100.00
16690;BME280;8458;52.220;9.884;2023-07-31T10:20:21;99894.66;;;18.00;100.00
16690;BME280;8458;52.220;9.884;2023-07-31T10:22:48;99900.94;;;18.05;100.00
16690;BME280;8458;52.220;9.884;2023-07-31T10:25:15;99907.53;;;18.09;100.00
16690;BME280;8458;52.220;9.884;2023-07-31T10:27:42;99891.69;;;18.05;100.00
16690;BME280;8458;52.220;9.884;2023-07-31T10:30:11;99893.31;;;18.15;100.00
16690;BME280;8458;52.220;9.884;2023-07-31T10:32:41;99894.78;;;18.12;100.00
16690;BME280;8458;52.220;9.884;2023-07-31T10:35:08;99901.53;;;18.20;100.00
16690;BME280;8458;52.220;9.884;2023-07-31T10:37:37;99895.25;;;18.23;100.00
16690;BME280;8458;52.220;9.884;2023-07-31T10:40:05;99883.06;;;18.19;100.00
16690;BME280;8458;52.220;9.884;2023-07-31T10:42:34;99887.69;;;18.15;100.00
16690;BME280;8458;52.220;9.884;2023-07-31T10:45:03;99879.09;;;18.20;100.00
16690;BME280;8458;52.220;9.884;2023-07-31T10:47:31;99877.06;;;18.29;100.00
16690;BME280;8458;52.220;9.884;2023-07-31T10:50:17;99873.56;;;18.41;100.00
16690;BME280;8458;52.220;9.884;2023-07-31T10:52:46;99866.06;;;18.54;100.00
16690;BME280;8458;52.220;9.884;2023-07-31T10:55:15;99862.88;;;18.64;100.00
16690;BME280;8458;52.220;9.884;2023-07-31T10:57:44;99854.03;;;18.74;100.00
16690;BME280;8458;52.220;9.884;2023-07-31T11:00:22;99857.16;;;18.81;100.00
16690;BME280;8458;52.220;9.884;2023-07-31T11:03:04;99853.00;;;18.88;100.00
16690;BME280;8458;52.220;9.884;2023-07-31T11:05:43;99859.84;;;18.99;100.00
16690;BME280;8458;52.220;9.884;2023-07-31T11:08:13;99857.00;;;19.08;100.00
16690;BME280;8458;52.220;9.884;2023-07-31T11:10:40;99855.50;;;19.10;100.00
16690;BME280;8458;52.220;9.884;2023-07-31T11:13:07;99852.19;;;19.08;100.00
16690;BME280;8458;52.220;9.884;2023-07-31T11:15:33;99849.19;;;19.13;100.00
16690;BME280;8458;52.220;9.884;2023-07-31T11:18:00;99854.25;;;19.20;100.00
16690;BME280;8458;52.220;9.884;2023-07-31T11:20:29;99850.13;;;19.17;100.00
16690;BME280;8458;52.220;9.884;2023-07-31T11:23:00;99864.38;;;19.12;100.00
16690;BME280;8458;52.220;9.884;2023-07-31T11:25:28;99848.69;;;19.11;100.00
16690;BME280;8458;52.220;9.884;2023-07-31T11:27:55;99855.69;;;19.05;100.00
16690;BME280;8458;52.220;9.884;2023-07-31T11:30:22;99855.22;;;19.03;100.00
16690;BME280;8458;52.220;9.884;2023-07-31T11:32:48;99850.41;;;19.04;100.00
16690;BME280;8458;52.220;9.884;2023-07-31T11:35:15;99840.69;;;19.01;100.00
16690;BME280;8458;52.220;9.884;2023-07-31T11:37:42;99835.06;;;19.01;100.00
16690;BME280;8458;52.220;9.884;2023-07-31T11:40:11;99846.44;;;19.05;100.00
16690;BME280;8458;52.220;9.884;2023-07-31T11:42:38;99832.88;;;19.07;100.00
16690;BME280;8458;52.220;9.884;2023-07-31T11:45:05;99843.06;;;19.11;100.00
16690;BME280;8458;52.220;9.884;2023-07-31T11:47:32;99840.94;;;19.08;100.00
16690;BME280;8458;52.220;9.884;2023-07-31T11:50:00;99830.41;;;19.05;100.00
16690;BME280;8458;52.220;9.884;2023-07-31T11:52:27;99836.34;;;19.04;100.00
16690;BME280;8458;52.220;9.884;2023-07-31T11:54:55;99832.06;;;19.06;100.00
16690;BME280;8458;52.220;9.884;2023-07-31T11:57:23;99818.34;;;19.05;100.00
16690;BME280;8458;52.220;9.884;2023-07-31T11:59:50;99815.19;;;19.06;100.00
16690;BME280;8458;52.220;9.884;2023-07-31T12:02:18;99816.63;;;19.12;100.00
16690;BME280;8458;52.220;9.884;2023-07-31T12:04:46;99810.78;;;19.17;100.00
16690;BME280;8458;52.220;9.884;2023-07-31T12:07:13;99815.72;;;19.21;100.00
16690;BME280;8458;52.220;9.884;2023-07-31T12:09:50;99814.91;;;19.20;100.00
16690;BME280;8458;52.220;9.884;2023-07-31T12:12:19;99818.19;;;19.22;100.00
16690;BME280;8458;52.220;9.884;2023-07-31T12:14:48;99815.53;;;19.26;100.00
16690;BME280;8458;52.220;9.884;2023-07-31T12:17:16;99818.19;;;19.22;100.00
16690;BME280;8458;52.220;9.884;2023-07-31T12:19:43;99813.13;;;19.15;100.00
16690;BME280;8458;52.220;9.884;2023-07-31T12:22:13;99821.09;;;19.13;100.00
16690;BME280;8458;52.220;9.884;2023-07-31T12:24:41;99824.72;;;19.14;100.00
16690;BME280;8458;52.220;9.884;2023-07-31T12:27:10;99826.56;;;19.10;100.00
16690;BME280;8458;52.220;9.884;2023-07-31T12:29:38;99821.28;;;19.08;100.00
16690;BME280;8458;52.220;9.884;2023-07-31T12:32:18;99812.84;;;19.08;100.00
16690;BME280;8458;52.220;9.884;2023-07-31T12:34:45;99818.22;;;19.01;100.00
16690;BME280;8458;52.220;9.884;2023-07-31T12:37:12;99810.25;;;19.03;100.00
16690;BME280;8458;52.220;9.884;2023-07-31T12:39:38;99819.38;;;19.00;100.00
16690;BME280;8458;52.220;9.884;2023-07-31T12:42:05;99818.91;;;18.98;100.00
16690;BME280;8458;52.220;9.884;2023-07-31T12:44:32;99818.63;;;18.91;100.00
16690;BME280;8458;52.220;9.884;2023-07-31T12:46:59;99809.97;;;18.96;100.00
16690;BME280;8458;52.220;9.884;2023-07-31T12:49:26;99803.56;;;18.95;100.00
16690;BME280;8458;52.220;9.884;2023-07-31T12:51:53;99808.81;;;18.97;100.00
16690;BME280;8458;52.220;9.884;2023-07-31T12:54:20;99808.81;;;18.97;100.00
16690;BME280;8458;52.220;9.884;2023-07-31T12:56:46;99804.38;;;18.96;100.00
16690;BME280;8458;52.220;9.884;2023-07-31T12:59:13;99792.59;;;19.03;100.00